sensor_id;sensor_type;location;lat;lon;timestamp;pressure;altitude;pressure_sealevel;temperature;humidity
6615;BME280;3343;42.896;23.912;2023-04-15T00:01:29;73241.47;;;-145.80;58.54
6615;BME280;3343;42.896;23.912;2023-04-15T00:03:58;73241.47;;;-145.80;58.37
6615;BME280;3343;42.896;23.912;2023-04-15T00:06:25;73229.44;;;-145.80;58.38
6615;BME280;3343;42.896;23.912;2023-04-15T00:08:52;73233.47;;;-145.80;58.30
6615;BME280;3343;42.896;23.912;2023-04-15T00:11:18;73251.50;;;-145.80;58.69
6615;BME280;3343;42.896;23.912;2023-04-15T00:29:57;73454.09;;;-145.80;65.80
6615;BME280;3343;42.896;23.912;2023-04-15T00:32:24;73470.13;;;-145.80;65.99
6615;BME280;3343;42.896;23.912;2023-04-15T00:34:51;73520.28;;;-145.80;66.89
6615;BME280;3343;42.896;23.912;2023-04-15T00:37:18;73494.22;;;-145.80;66.29
6615;BME280;3343;42.896;23.912;2023-04-15T00:39:45;73478.16;;;-145.80;65.79
6615;BME280;3343;42.896;23.912;2023-04-15T00:42:12;73482.16;;;-145.80;66.10
6615;BME280;3343;42.896;23.912;2023-04-15T00:44:39;73470.13;;;-145.80;65.62
6615;BME280;3343;42.896;23.912;2023-04-15T00:47:08;73476.16;;;-145.80;65.42
6615;BME280;3343;42.896;23.912;2023-04-15T00:49:36;73470.13;;;-145.80;64.94
6615;BME280;3343;42.896;23.912;2023-04-15T00:52:03;73438.03;;;-145.80;63.76
6615;BME280;3343;42.896;23.912;2023-04-15T01:09:09;73554.38;;;-145.80;68.16
6615;BME280;3343;42.896;23.912;2023-04-15T01:11:36;73548.38;;;-145.80;67.62
6615;BME280;3343;42.896;23.912;2023-04-15T01:14:03;73556.38;;;-145.80;68.11
6615;BME280;3343;42.896;23.912;2023-04-15T01:16:30;73574.44;;;-145.80;68.35
6615;BME280;3343;42.896;23.912;2023-04-15T01:18:57;73600.50;;;-145.80;68.77
6615;BME280;3343;42.896;23.912;2023-04-15T01:21:24;73566.41;;;-145.80;68.17
6615;BME280;3343;42.896;23.912;2023-04-15T01:23:52;73518.28;;;-145.80;67.13
6615;BME280;3343;42.896;23.912;2023-04-15T01:26:22;73478.16;;;-145.80;66.05
6615;BME280;3343;42.896;23.912;2023-04-15T01:28:49;73512.25;;;-145.80;65.76
6615;BME280;3343;42.896;23.912;2023-04-15T01:31:16;73542.34;;;-145.80;66.60
6615;BME280;3343;42.896;23.912;2023-04-15T01:33:44;73500.22;;;-145.80;65.67
6615;BME280;3343;42.896;23.912;2023-04-15T01:36:11;73526.28;;;-145.80;65.88
6615;BME280;3343;42.896;23.912;2023-04-15T01:38:38;73506.25;;;-145.80;65.82
6615;BME280;3343;42.896;23.912;2023-04-15T01:41:06;73512.25;;;-145.80;66.15
6615;BME280;3343;42.896;23.912;2023-04-15T01:43:35;73522.28;;;-145.80;66.72
6615;BME280;3343;42.896;23.912;2023-04-15T01:46:02;73522.28;;;-145.80;66.46
6615;BME280;3343;42.896;23.912;2023-04-15T01:48:29;73528.31;;;-145.80;66.99
6615;BME280;3343;42.896;23.912;2023-04-15T01:50:58;73526.28;;;-145.80;67.06
6615;BME280;3343;42.896;23.912;2023-04-15T01:53:25;73568.41;;;-145.80;67.96
6615;BME280;3343;42.896;23.912;2023-04-15T01:55:51;73532.31;;;-145.80;66.82
6615;BME280;3343;42.896;23.912;2023-04-15T01:58:18;73530.31;;;-145.80;67.06
6615;BME280;3343;42.896;23.912;2023-04-15T02:00:47;73536.31;;;-145.80;67.56
6615;BME280;3343;42.896;23.912;2023-04-15T02:03:15;73568.41;;;-145.80;68.65
6615;BME280;3343;42.896;23.912;2023-04-15T02:05:42;73600.50;;;-145.80;69.28
6615;BME280;3343;42.896;23.912;2023-04-15T02:08:09;73552.38;;;-145.80;68.53
6615;BME280;3343;42.896;23.912;2023-04-15T02:10:36;73546.34;;;-145.80;68.10
6615;BME280;3343;42.896;23.912;2023-04-15T02:13:03;73536.31;;;-145.80;67.63
6615;BME280;3343;42.896;23.912;2023-04-15T02:15:30;73528.31;;;-145.80;67.30
6615;BME280;3343;42.896;23.912;2023-04-15T02:17:59;73528.31;;;-145.80;67.67
6615;BME280;3343;42.896;23.912;2023-04-15T02:20:26;73530.31;;;-145.80;67.49
6615;BME280;3343;42.896;23.912;2023-04-15T02:22:55;73528.31;;;-145.80;67.08
6615;BME280;3343;42.896;23.912;2023-04-15T02:25:22;73520.28;;;-145.80;67.13
6615;BME280;3343;42.896;23.912;2023-04-15T02:27:49;73532.31;;;-145.80;67.33
6615;BME280;3343;42.896;23.912;2023-04-15T02:30:16;73538.34;;;-145.80;67.63
6615;BME280;3343;42.896;23.912;2023-04-15T02:32:43;73542.34;;;-145.80;67.83
6615;BME280;3343;42.896;23.912;2023-04-15T02:35:11;73510.25;;;-145.80;67.38
6615;BME280;3343;42.896;23.912;2023-04-15T02:37:38;73490.19;;;-145.80;66.42
6615;BME280;3343;42.896;23.912;2023-04-15T02:40:09;73482.16;;;-145.80;66.32
6615;BME280;3343;42.896;23.912;2023-04-15T02:42:37;73498.22;;;-145.80;66.70
6615;BME280;3343;42.896;23.912;2023-04-15T02:45:05;73566.41;;;-145.80;68.68
6615;BME280;3343;42.896;23.912;2023-04-15T02:47:32;73552.38;;;-145.80;68.81
6615;BME280;3343;42.896;23.912;2023-04-15T02:49:59;73544.34;;;-145.80;68.32
6615;BME280;3343;42.896;23.912;2023-04-15T02:52:27;73570.44;;;-145.80;69.92
6615;BME280;3343;42.896;23.912;2023-04-15T02:54:54;73534.31;;;-145.80;68.88
6615;BME280;3343;42.896;23.912;2023-04-15T02:57:25;73532.31;;;-145.80;69.14
6615;BME280;3343;42.896;23.912;2023-04-15T02:59:52;73502.22;;;-145.80;68.68
6615;BME280;3343;42.896;23.912;2023-04-15T03:02:18;73526.28;;;-145.80;69.05
6615;BME280;3343;42.896;23.912;2023-04-15T03:04:45;73552.38;;;-145.80;70.95
6615;BME280;3343;42.896;23.912;2023-04-15T03:07:12;73502.22;;;-145.80;69.12
6615;BME280;3343;42.896;23.912;2023-04-15T03:09:40;73486.19;;;-145.80;69.65
6615;BME280;3343;42.896;23.912;2023-04-15T03:12:07;73472.13;;;-145.80;68.91
6615;BME280;3343;42.896;23.912;2023-04-15T03:14:34;73484.19;;;-145.80;69.86
6615;BME280;3343;42.896;23.912;2023-04-15T03:17:00;73466.13;;;-145.80;68.42
6615;BME280;3343;42.896;23.912;2023-04-15T03:19:27;73450.06;;;-145.80;67.94
6615;BME280;3343;42.896;23.912;2023-04-15T03:21:54;73454.09;;;-145.80;67.61
6615;BME280;3343;42.896;23.912;2023-04-15T03:24:21;73482.16;;;-145.80;68.91
6615;BME280;3343;42.896;23.912;2023-04-15T03:26:50;73554.38;;;-145.80;72.17
6615;BME280;3343;42.896;23.912;2023-04-15T03:29:17;73510.25;;;-145.80;70.83
6615;BME280;3343;42.896;23.912;2023-04-15T03:31:44;73474.16;;;-145.80;69.61
6615;BME280;3343;42.896;23.912;2023-04-15T03:34:10;73466.13;;;-145.80;69.41
6615;BME280;3343;42.896;23.912;2023-04-15T03:36:37;73512.25;;;-145.80;70.66
6615;BME280;3343;42.896;23.912;2023-04-15T03:39:04;73460.09;;;-145.80;69.14
6615;BME280;3343;42.896;23.912;2023-04-15T03:41:31;73450.06;;;-145.80;68.81
6615;BME280;3343;42.896;23.912;2023-04-15T03:43:59;73426.00;;;-145.80;68.38
6615;BME280;3343;42.896;23.912;2023-04-15T03:46:26;73474.16;;;-145.80;68.89
6615;BME280;3343;42.896;23.912;2023-04-15T03:48:53;73492.19;;;-145.80;68.33
6615;BME280;3343;42.896;23.912;2023-04-15T03:51:20;73490.19;;;-145.80;67.95
6615;BME280;3343;42.896;23.912;2023-04-15T03:53:46;73550.38;;;-145.80;68.62
6615;BME280;3343;42.896;23.912;2023-04-15T03:56:13;73556.38;;;-145.80;69.07
6615;BME280;3343;42.896;23.912;2023-04-15T03:58:40;73552.38;;;-145.80;69.44
6615;BME280;3343;42.896;23.912;2023-04-15T04:01:08;73538.34;;;-145.80;69.70
6615;BME280;3343;42.896;23.912;2023-04-15T04:03:36;73518.28;;;-145.80;68.98
6615;BME280;3343;42.896;23.912;2023-04-15T04:06:03;73484.19;;;-145.80;67.74
6615;BME280;3343;42.896;23.912;2023-04-15T04:08:29;73514.25;;;-145.80;67.92
6615;BME280;3343;42.896;23.912;2023-04-15T04:10:56;73534.31;;;-145.80;69.11
6615;BME280;3343;42.896;23.912;2023-04-15T04:13:23;73524.28;;;-145.80;68.60
6615;BME280;3343;42.896;23.912;2023-04-15T04:15:51;73512.25;;;-145.80;68.12
6615;BME280;3343;42.896;23.912;2023-04-15T04:18:19;73510.25;;;-145.80;68.40
6615;BME280;3343;42.896;23.912;2023-04-15T04:20:46;73530.31;;;-145.80;68.38
6615;BME280;3343;42.896;23.912;2023-04-15T04:23:13;73516.28;;;-145.80;68.08
6615;BME280;3343;42.896;23.912;2023-04-15T04:25:40;73468.13;;;-145.80;67.90
6615;BME280;3343;42.896;23.912;2023-04-15T04:28:06;73417.97;;;-145.80;66.34
6615;BME280;3343;42.896;23.912;2023-04-15T04:30:34;73367.84;;;-145.80;64.84
6615;BME280;3343;42.896;23.912;2023-04-15T04:33:01;73347.78;;;-145.80;63.63
6615;BME280;3343;42.896;23.912;2023-04-15T04:35:29;73285.59;;;-145.80;61.88
6615;BME280;3343;42.896;23.912;2023-04-15T04:37:59;73261.53;;;-145.80;60.13
6615;BME280;3343;42.896;23.912;2023-04-15T04:40:26;73189.34;;;-145.80;60.15
6615;BME280;3343;42.896;23.912;2023-04-15T04:42:53;73169.28;;;-145.80;59.33
6615;BME280;3343;42.896;23.912;2023-04-15T04:45:19;73113.13;;;-145.80;57.82
6615;BME280;3343;42.896;23.912;2023-04-15T04:47:47;73165.28;;;-145.80;57.65
6615;BME280;3343;42.896;23.912;2023-04-15T04:50:14;73207.38;;;-145.80;58.55
6615;BME280;3343;42.896;23.912;2023-04-15T04:52:42;73185.31;;;-145.80;58.64
6615;BME280;3343;42.896;23.912;2023-04-15T04:55:09;73187.34;;;-145.80;58.70
6615;BME280;3343;42.896;23.912;2023-04-15T04:57:36;73111.13;;;-145.80;57.99
6615;BME280;3343;42.896;23.912;2023-04-15T05:00:05;73044.94;;;-145.80;54.65
6615;BME280;3343;42.896;23.912;2023-04-15T05:02:33;73139.19;;;-145.80;54.67
6615;BME280;3343;42.896;23.912;2023-04-15T05:05:00;73173.28;;;-145.80;55.82
6615;BME280;3343;42.896;23.912;2023-04-15T05:07:27;73119.13;;;-145.80;54.71
6615;BME280;3343;42.896;23.912;2023-04-15T05:09:55;73002.81;;;-145.80;52.47
6615;BME280;3343;42.896;23.912;2023-04-15T05:12:22;72914.56;;;-145.80;51.29
6615;BME280;3343;42.896;23.912;2023-04-15T05:14:48;72852.41;;;-145.80;50.53
6615;BME280;3343;42.896;23.912;2023-04-15T05:17:15;72830.34;;;-145.80;47.29
6615;BME280;3343;42.896;23.912;2023-04-15T05:19:42;72840.38;;;-145.80;47.98
6615;BME280;3343;42.896;23.912;2023-04-15T05:22:09;72858.44;;;-145.80;49.83
6615;BME280;3343;42.896;23.912;2023-04-15T05:24:37;72858.44;;;-145.80;50.21
6615;BME280;3343;42.896;23.912;2023-04-15T05:27:05;72822.34;;;-145.80;51.65
6615;BME280;3343;42.896;23.912;2023-04-15T05:29:33;72776.22;;;-145.80;50.14
6615;BME280;3343;42.896;23.912;2023-04-15T05:32:00;72746.13;;;-145.80;47.61
6615;BME280;3343;42.896;23.912;2023-04-15T05:34:26;72752.13;;;-145.80;48.58
6615;BME280;3343;42.896;23.912;2023-04-15T05:36:53;72774.19;;;-145.80;48.68
6615;BME280;3343;42.896;23.912;2023-04-15T05:39:20;72772.19;;;-145.80;49.29
6615;BME280;3343;42.896;23.912;2023-04-15T05:41:47;72742.13;;;-145.80;48.51
6615;BME280;3343;42.896;23.912;2023-04-15T05:44:15;72706.00;;;-145.80;48.46
6615;BME280;3343;42.896;23.912;2023-04-15T05:46:42;72671.94;;;-145.80;47.04
6615;BME280;3343;42.896;23.912;2023-04-15T05:49:09;72645.84;;;-145.80;47.57
6615;BME280;3343;42.896;23.912;2023-04-15T05:51:36;72591.72;;;-145.80;45.79
6615;BME280;3343;42.896;23.912;2023-04-15T05:54:03;72589.72;;;-145.80;44.31
6615;BME280;3343;42.896;23.912;2023-04-15T05:56:30;72587.69;;;-145.80;44.15
6615;BME280;3343;42.896;23.912;2023-04-15T05:58:57;72579.69;;;-145.80;44.21
6615;BME280;3343;42.896;23.912;2023-04-15T06:01:25;72547.59;;;-145.80;43.66
6615;BME280;3343;42.896;23.912;2023-04-15T06:03:52;72531.56;;;-145.80;44.04
6615;BME280;3343;42.896;23.912;2023-04-15T06:06:18;72465.38;;;-145.80;44.00
6615;BME280;3343;42.896;23.912;2023-04-15T06:08:45;72306.97;;;-145.80;38.96
6615;BME280;3343;42.896;23.912;2023-04-15T06:11:13;72254.84;;;-145.80;36.77
6615;BME280;3343;42.896;23.912;2023-04-15T06:13:40;72244.81;;;-145.80;36.50
6615;BME280;3343;42.896;23.912;2023-04-15T06:16:07;72226.78;;;-145.80;38.14
6615;BME280;3343;42.896;23.912;2023-04-15T06:18:35;72150.59;;;-145.80;37.10
6615;BME280;3343;42.896;23.912;2023-04-15T06:21:02;72122.50;;;-145.80;34.34
6615;BME280;3343;42.896;23.912;2023-04-15T06:23:29;72132.53;;;-145.80;33.85
6615;BME280;3343;42.896;23.912;2023-04-15T06:25:56;72114.50;;;-145.80;36.33
6615;BME280;3343;42.896;23.912;2023-04-15T06:28:23;72130.53;;;-145.80;36.25
6615;BME280;3343;42.896;23.912;2023-04-15T06:30:50;72136.56;;;-145.80;35.08
6615;BME280;3343;42.896;23.912;2023-04-15T06:33:16;72126.53;;;-145.80;34.36
6615;BME280;3343;42.896;23.912;2023-04-15T06:35:45;72178.66;;;-145.80;37.00
6615;BME280;3343;42.896;23.912;2023-04-15T06:38:12;72094.44;;;-145.80;33.88
6615;BME280;3343;42.896;23.912;2023-04-15T06:40:39;72100.47;;;-145.80;33.41
6615;BME280;3343;42.896;23.912;2023-04-15T06:43:06;72120.50;;;-145.80;34.69
6615;BME280;3343;42.896;23.912;2023-04-15T06:45:33;72086.44;;;-145.80;33.71
6615;BME280;3343;42.896;23.912;2023-04-15T06:48:00;72146.56;;;-145.80;34.72
6615;BME280;3343;42.896;23.912;2023-04-15T06:50:27;72076.41;;;-145.80;33.48
6615;BME280;3343;42.896;23.912;2023-04-15T06:52:55;71984.16;;;-145.80;34.42
6615;BME280;3343;42.896;23.912;2023-04-15T06:55:22;71916.00;;;-145.80;33.68
6615;BME280;3343;42.896;23.912;2023-04-15T06:57:49;71914.00;;;-145.80;33.08
6615;BME280;3343;42.896;23.912;2023-04-15T07:00:16;71922.03;;;-145.80;32.38
6615;BME280;3343;42.896;23.912;2023-04-15T07:02:44;71914.00;;;-145.80;33.15
6615;BME280;3343;42.896;23.912;2023-04-15T07:05:11;71879.91;;;-145.80;33.59
6615;BME280;3343;42.896;23.912;2023-04-15T07:07:37;71823.78;;;-145.80;33.25
6615;BME280;3343;42.896;23.912;2023-04-15T07:10:07;71815.75;;;-145.80;31.71
6615;BME280;3343;42.896;23.912;2023-04-15T07:12:34;71845.84;;;-145.80;32.55
6615;BME280;3343;42.896;23.912;2023-04-15T07:15:01;71807.75;;;-145.80;32.29
6615;BME280;3343;42.896;23.912;2023-04-15T07:17:28;71773.66;;;-145.80;32.82
6615;BME280;3343;42.896;23.912;2023-04-15T07:19:55;71735.56;;;-145.80;31.72
6615;BME280;3343;42.896;23.912;2023-04-15T07:22:22;71725.53;;;-145.80;31.57
6615;BME280;3343;42.896;23.912;2023-04-15T07:24:48;71779.69;;;-145.80;31.93
6615;BME280;3343;42.896;23.912;2023-04-15T07:27:17;71723.53;;;-145.80;31.45
6615;BME280;3343;42.896;23.912;2023-04-15T07:29:43;71717.53;;;-145.80;30.92
6615;BME280;3343;42.896;23.912;2023-04-15T07:32:10;71679.44;;;-145.80;29.98
6615;BME280;3343;42.896;23.912;2023-04-15T07:34:37;71663.41;;;-145.80;29.50
6615;BME280;3343;42.896;23.912;2023-04-15T07:37:04;71653.38;;;-145.80;28.82
6615;BME280;3343;42.896;23.912;2023-04-15T07:39:31;71645.34;;;-145.80;29.02
6615;BME280;3343;42.896;23.912;2023-04-15T07:41:57;71633.34;;;-145.80;28.74
6615;BME280;3343;42.896;23.912;2023-04-15T07:44:26;71677.44;;;-145.80;29.19
6615;BME280;3343;42.896;23.912;2023-04-15T07:46:53;71677.44;;;-145.80;29.31
6615;BME280;3343;42.896;23.912;2023-04-15T07:49:20;71717.53;;;-145.80;29.12
6615;BME280;3343;42.896;23.912;2023-04-15T07:51:47;71777.66;;;-145.80;28.53
6615;BME280;3343;42.896;23.912;2023-04-15T07:54:15;71741.59;;;-145.80;30.03
6615;BME280;3343;42.896;23.912;2023-04-15T07:56:41;71731.56;;;-145.80;29.29
6615;BME280;3343;42.896;23.912;2023-04-15T07:59:08;71709.50;;;-145.80;29.08
6615;BME280;3343;42.896;23.912;2023-04-15T08:01:37;71701.50;;;-145.80;29.96
6615;BME280;3343;42.896;23.912;2023-04-15T08:04:04;71697.47;;;-145.80;29.68
6615;BME280;3343;42.896;23.912;2023-04-15T08:06:31;71709.50;;;-145.80;29.83
6615;BME280;3343;42.896;23.912;2023-04-15T08:08:58;71715.53;;;-145.80;29.55
6615;BME280;3343;42.896;23.912;2023-04-15T08:11:26;71675.44;;;-145.80;30.17
6615;BME280;3343;42.896;23.912;2023-04-15T08:13:53;71695.47;;;-145.80;29.19
6615;BME280;3343;42.896;23.912;2023-04-15T08:16:21;71665.41;;;-145.80;29.30
6615;BME280;3343;42.896;23.912;2023-04-15T08:18:51;71607.28;;;-145.80;28.98
6615;BME280;3343;42.896;23.912;2023-04-15T08:21:19;71663.41;;;-145.80;29.61
6615;BME280;3343;42.896;23.912;2023-04-15T08:23:47;71629.31;;;-145.80;29.62
6615;BME280;3343;42.896;23.912;2023-04-15T08:26:14;71655.38;;;-145.80;28.93
6615;BME280;3343;42.896;23.912;2023-04-15T08:28:42;71673.44;;;-145.80;29.24
6615;BME280;3343;42.896;23.912;2023-04-15T08:31:11;71637.34;;;-145.80;29.98
6615;BME280;3343;42.896;23.912;2023-04-15T08:33:37;71637.34;;;-145.80;28.78
6615;BME280;3343;42.896;23.912;2023-04-15T08:36:06;71607.28;;;-145.80;29.41
6615;BME280;3343;42.896;23.912;2023-04-15T08:38:34;71657.38;;;-145.80;28.28
6615;BME280;3343;42.896;23.912;2023-04-15T08:41:03;71729.56;;;-145.80;29.67
6615;BME280;3343;42.896;23.912;2023-04-15T08:43:34;71761.63;;;-145.80;30.56
6615;BME280;3343;42.896;23.912;2023-04-15T08:46:01;71709.50;;;-145.80;30.17
6615;BME280;3343;42.896;23.912;2023-04-15T08:48:32;71701.50;;;-145.80;30.33
6615;BME280;3343;42.896;23.912;2023-04-15T08:50:59;71711.50;;;-145.80;29.99
6615;BME280;3343;42.896;23.912;2023-04-15T08:53:29;71785.69;;;-145.80;29.41
6615;BME280;3343;42.896;23.912;2023-04-15T08:55:59;71893.94;;;-145.80;29.79
6615;BME280;3343;42.896;23.912;2023-04-15T08:58:30;71990.19;;;-145.80;30.75
6615;BME280;3343;42.896;23.912;2023-04-15T09:00:57;71916.00;;;-145.80;28.76
6615;BME280;3343;42.896;23.912;2023-04-15T09:03:25;71960.13;;;-145.80;27.39
6615;BME280;3343;42.896;23.912;2023-04-15T09:05:52;72054.34;;;-145.80;29.79
6615;BME280;3343;42.896;23.912;2023-04-15T09:08:19;72026.28;;;-145.80;30.47
6615;BME280;3343;42.896;23.912;2023-04-15T09:10:48;71938.06;;;-145.80;30.96
6615;BME280;3343;42.896;23.912;2023-04-15T09:13:15;71879.91;;;-145.80;27.97
6615;BME280;3343;42.896;23.912;2023-04-15T09:15:42;71865.88;;;-145.80;26.29
6615;BME280;3343;42.896;23.912;2023-04-15T09:18:10;71952.09;;;-145.80;26.81
6615;BME280;3343;42.896;23.912;2023-04-15T09:20:38;71956.09;;;-145.80;26.94
6615;BME280;3343;42.896;23.912;2023-04-15T09:23:11;71895.97;;;-145.80;26.97
6615;BME280;3343;42.896;23.912;2023-04-15T09:25:39;71797.72;;;-145.80;28.48
6615;BME280;3343;42.896;23.912;2023-04-15T09:28:08;71665.41;;;-145.80;27.33
6615;BME280;3343;42.896;23.912;2023-04-15T09:30:35;71637.34;;;-145.80;25.79
6615;BME280;3343;42.896;23.912;2023-04-15T09:33:03;71665.41;;;-145.80;25.32
6615;BME280;3343;42.896;23.912;2023-04-15T09:35:33;71631.31;;;-145.80;26.50
6615;BME280;3343;42.896;23.912;2023-04-15T09:38:02;71581.22;;;-145.80;25.18
6615;BME280;3343;42.896;23.912;2023-04-15T09:40:33;71637.34;;;-145.80;26.20
6615;BME280;3343;42.896;23.912;2023-04-15T09:43:01;71757.63;;;-145.80;25.46
6615;BME280;3343;42.896;23.912;2023-04-15T09:45:30;71777.66;;;-145.80;26.54
6615;BME280;3343;42.896;23.912;2023-04-15T09:47:58;71755.63;;;-145.80;25.98
6615;BME280;3343;42.896;23.912;2023-04-15T09:50:27;71711.50;;;-145.80;26.15
6615;BME280;3343;42.896;23.912;2023-04-15T09:52:54;71697.47;;;-145.80;26.07
6615;BME280;3343;42.896;23.912;2023-04-15T09:55:21;71659.41;;;-145.80;25.53
6615;BME280;3343;42.896;23.912;2023-04-15T09:57:48;71627.31;;;-145.80;25.62
6615;BME280;3343;42.896;23.912;2023-04-15T10:00:15;71657.38;;;-145.80;25.59
6615;BME280;3343;42.896;23.912;2023-04-15T10:02:44;71681.44;;;-145.80;26.01
6615;BME280;3343;42.896;23.912;2023-04-15T10:05:14;71697.47;;;-145.80;26.29
6615;BME280;3343;42.896;23.912;2023-04-15T10:07:42;71695.47;;;-145.80;25.59
6615;BME280;3343;42.896;23.912;2023-04-15T10:10:10;71691.47;;;-145.80;26.34
6615;BME280;3343;42.896;23.912;2023-04-15T10:12:40;71709.50;;;-145.80;25.64
6615;BME280;3343;42.896;23.912;2023-04-15T10:15:12;71725.53;;;-145.80;25.29
6615;BME280;3343;42.896;23.912;2023-04-15T10:17:44;71837.81;;;-145.80;24.97
6615;BME280;3343;42.896;23.912;2023-04-15T10:20:12;71916.00;;;-145.80;25.14
6615;BME280;3343;42.896;23.912;2023-04-15T10:22:41;71930.03;;;-145.80;25.64
6615;BME280;3343;42.896;23.912;2023-04-15T10:25:09;71930.03;;;-145.80;25.54
6615;BME280;3343;42.896;23.912;2023-04-15T10:27:39;71942.06;;;-145.80;25.50
6615;BME280;3343;42.896;23.912;2023-04-15T10:30:07;71926.03;;;-145.80;25.82
6615;BME280;3343;42.896;23.912;2023-04-15T10:32:34;71885.94;;;-145.80;25.34
6615;BME280;3343;42.896;23.912;2023-04-15T10:35:04;71817.78;;;-145.80;25.63
6615;BME280;3343;42.896;23.912;2023-04-15T10:37:36;71737.56;;;-145.80;26.01
6615;BME280;3343;42.896;23.912;2023-04-15T10:40:22;71697.47;;;-145.80;25.40
6615;BME280;3343;42.896;23.912;2023-04-15T10:42:50;71717.53;;;-145.80;25.32
6615;BME280;3343;42.896;23.912;2023-04-15T10:45:17;71781.69;;;-145.80;25.68
6615;BME280;3343;42.896;23.912;2023-04-15T10:47:44;71771.66;;;-145.80;25.40
6615;BME280;3343;42.896;23.912;2023-04-15T10:50:13;71771.66;;;-145.80;25.78
6615;BME280;3343;42.896;23.912;2023-04-15T10:52:40;71743.59;;;-145.80;26.12
6615;BME280;3343;42.896;23.912;2023-04-15T10:55:19;71731.56;;;-145.80;25.67
6615;BME280;3343;42.896;23.912;2023-04-15T10:57:50;71651.38;;;-145.80;26.86
6615;BME280;3343;42.896;23.912;2023-04-15T11:00:19;71557.16;;;-145.80;25.72
6615;BME280;3343;42.896;23.912;2023-04-15T11:02:47;71517.06;;;-145.80;25.82
6615;BME280;3343;42.896;23.912;2023-04-15T11:05:15;71547.13;;;-145.80;26.31
6615;BME280;3343;42.896;23.912;2023-04-15T11:07:51;71597.25;;;-145.80;25.51
6615;BME280;3343;42.896;23.912;2023-04-15T11:10:52;71649.38;;;-145.80;26.50
6615;BME280;3343;42.896;23.912;2023-04-15T11:13:26;71609.28;;;-145.80;26.59
6615;BME280;3343;42.896;23.912;2023-04-15T11:15:58;71589.22;;;-145.80;26.10
6615;BME280;3343;42.896;23.912;2023-04-15T11:18:28;71641.34;;;-145.80;25.94
6615;BME280;3343;42.896;23.912;2023-04-15T11:20:59;71667.41;;;-145.80;25.83
6615;BME280;3343;42.896;23.912;2023-04-15T11:23:28;71703.50;;;-145.80;26.50
6615;BME280;3343;42.896;23.912;2023-04-15T11:25:57;71749.59;;;-145.80;25.81
6615;BME280;3343;42.896;23.912;2023-04-15T11:28:25;71725.53;;;-145.80;26.70
6615;BME280;3343;42.896;23.912;2023-04-15T11:30:54;71801.72;;;-145.80;25.89
6615;BME280;3343;42.896;23.912;2023-04-15T11:33:21;71725.53;;;-145.80;25.81
6615;BME280;3343;42.896;23.912;2023-04-15T11:35:49;71675.44;;;-145.80;25.90
6615;BME280;3343;42.896;23.912;2023-04-15T11:38:19;71627.31;;;-145.80;25.54
6615;BME280;3343;42.896;23.912;2023-04-15T11:40:47;71627.31;;;-145.80;25.19
6615;BME280;3343;42.896;23.912;2023-04-15T11:43:17;71677.44;;;-145.80;25.02
6615;BME280;3343;42.896;23.912;2023-04-15T11:45:50;71673.44;;;-145.80;26.17
6615;BME280;3343;42.896;23.912;2023-04-15T11:48:18;71657.38;;;-145.80;25.52
6615;BME280;3343;42.896;23.912;2023-04-15T11:50:45;71629.31;;;-145.80;26.28
6615;BME280;3343;42.896;23.912;2023-04-15T11:53:12;71631.31;;;-145.80;26.25
6615;BME280;3343;42.896;23.912;2023-04-15T11:55:45;71621.31;;;-145.80;26.26
6615;BME280;3343;42.896;23.912;2023-04-15T11:58:13;71621.31;;;-145.80;25.88
6615;BME280;3343;42.896;23.912;2023-04-15T12:00:45;71629.31;;;-145.80;25.78
6615;BME280;3343;42.896;23.912;2023-04-15T12:03:18;71627.31;;;-145.80;25.42
6615;BME280;3343;42.896;23.912;2023-04-15T12:06:09;71561.16;;;-145.80;25.44
6615;BME280;3343;42.896;23.912;2023-04-15T12:09:07;71509.03;;;-145.80;25.63
6615;BME280;3343;42.896;23.912;2023-04-15T12:11:38;71511.03;;;-145.80;24.56
6615;BME280;3343;42.896;23.912;2023-04-15T12:14:07;71579.19;;;-145.80;25.11
6615;BME280;3343;42.896;23.912;2023-04-15T12:16:36;71593.25;;;-145.80;25.45
6615;BME280;3343;42.896;23.912;2023-04-15T12:19:09;71589.22;;;-145.80;24.68
6615;BME280;3343;42.896;23.912;2023-04-15T12:21:38;71561.16;;;-145.80;25.16
6615;BME280;3343;42.896;23.912;2023-04-15T12:24:07;71577.19;;;-145.80;24.11
6615;BME280;3343;42.896;23.912;2023-04-15T12:26:37;71607.28;;;-145.80;24.22
6615;BME280;3343;42.896;23.912;2023-04-15T12:29:06;71637.34;;;-145.80;24.69
6615;BME280;3343;42.896;23.912;2023-04-15T12:31:34;71693.47;;;-145.80;25.22
6615;BME280;3343;42.896;23.912;2023-04-15T12:34:02;71689.47;;;-145.80;26.51
6615;BME280;3343;42.896;23.912;2023-04-15T12:36:30;71691.47;;;-145.80;26.79
6615;BME280;3343;42.896;23.912;2023-04-15T12:39:01;71681.44;;;-145.80;26.46
6615;BME280;3343;42.896;23.912;2023-04-15T12:41:29;71661.41;;;-145.80;26.99
6615;BME280;3343;42.896;23.912;2023-04-15T12:43:57;71645.34;;;-145.80;26.58
6615;BME280;3343;42.896;23.912;2023-04-15T12:46:24;71621.31;;;-145.80;26.71
6615;BME280;3343;42.896;23.912;2023-04-15T12:48:52;71645.34;;;-145.80;26.86
6615;BME280;3343;42.896;23.912;2023-04-15T12:51:19;71627.31;;;-145.80;26.42
6615;BME280;3343;42.896;23.912;2023-04-15T12:53:46;71613.28;;;-145.80;26.42
6615;BME280;3343;42.896;23.912;2023-04-15T12:56:14;71607.28;;;-145.80;26.61
6615;BME280;3343;42.896;23.912;2023-04-15T12:58:41;71585.22;;;-145.80;27.20
6615;BME280;3343;42.896;23.912;2023-04-15T13:01:09;71547.13;;;-145.80;27.29
6615;BME280;3343;42.896;23.912;2023-04-15T13:03:36;71557.16;;;-145.80;26.35
6615;BME280;3343;42.896;23.912;2023-04-15T13:06:03;71615.28;;;-145.80;26.33
6615;BME280;3343;42.896;23.912;2023-04-15T13:08:30;71659.41;;;-145.80;26.13
6615;BME280;3343;42.896;23.912;2023-04-15T13:10:57;71651.38;;;-145.80;26.26
6615;BME280;3343;42.896;23.912;2023-04-15T13:13:25;71629.31;;;-145.80;26.07
6615;BME280;3343;42.896;23.912;2023-04-15T13:15:52;71607.28;;;-145.80;27.14
6615;BME280;3343;42.896;23.912;2023-04-15T13:18:20;71561.16;;;-145.80;25.97
6615;BME280;3343;42.896;23.912;2023-04-15T13:20:48;71565.16;;;-145.80;25.71
6615;BME280;3343;42.896;23.912;2023-04-15T13:23:14;71577.19;;;-145.80;26.19
6615;BME280;3343;42.896;23.912;2023-04-15T13:25:41;71595.25;;;-145.80;25.37